Airport View

Enter AWOS ICAO identifier for current METAR.

ex. KFNL

PAWS 080456Z AUTO 00000KT 10SM -RA FEW033 SCT045 OVC075 13/12 A2960 RMK AO2 RAB22 SLP026 P0005 T01330117

8 Aug 2020 05:29

Frequency: 135.25

Phone: 907-373-3801

Other Area AWOS: PABV - PAAQ - PAFR - PAED

TAF PAAQ 072337Z 0800/0824 10007KT P6SM SCT100 FM080100 15010G17KT P6SM VCSH BKN080 FM081000 14006KT P6SM VCSH SCT050 OVC080